createdAt,value
2022-11-09T00:01:02.251Z,8.50
2022-11-09T00:03:30.371Z,8.50
2022-11-09T00:06:00.937Z,8.50
2022-11-09T00:08:29.132Z,8.50
2022-11-09T00:11:03.173Z,8.50
2022-11-09T00:13:31.261Z,8.50
2022-11-09T00:15:59.992Z,8.60
2022-11-09T00:18:28.019Z,8.60
2022-11-09T00:20:56.157Z,8.60
2022-11-09T00:23:25.625Z,8.60
2022-11-09T00:25:53.885Z,8.60
2022-11-09T00:28:21.918Z,8.70
2022-11-09T00:30:50.132Z,8.70
2022-11-09T00:33:18.517Z,8.70
2022-11-09T00:35:49.265Z,8.80
2022-11-09T00:38:17.365Z,8.80
2022-11-09T00:40:47.050Z,8.80
2022-11-09T00:43:15.116Z,8.80
2022-11-09T00:45:43.346Z,8.80
2022-11-09T00:48:14.341Z,8.90
2022-11-09T00:50:42.403Z,8.90
2022-11-09T00:53:10.540Z,8.90
2022-11-09T00:55:41.468Z,8.90
2022-11-09T00:58:10.950Z,8.90
2022-11-09T01:00:39.115Z,8.90
2022-11-09T01:03:07.493Z,8.90
2022-11-09T01:05:35.569Z,8.90
2022-11-09T01:08:03.808Z,8.90
2022-11-09T01:10:31.900Z,8.90
2022-11-09T01:13:02.783Z,9.00
2022-11-09T01:15:32.879Z,9.00
2022-11-09T01:18:00.969Z,9.00
2022-11-09T01:20:29.040Z,9.00
2022-11-09T01:22:57.160Z,9.00
2022-11-09T01:25:27.375Z,9.10
2022-11-09T01:27:55.692Z,9.10
2022-11-09T01:30:23.869Z,9.10
2022-11-09T01:32:53.780Z,9.10
2022-11-09T01:35:21.859Z,9.10
2022-11-09T01:37:49.912Z,9.10
2022-11-09T01:40:17.976Z,9.10
2022-11-09T01:42:46.105Z,9.10
2022-11-09T01:45:24.898Z,9.10
2022-11-09T01:47:58.956Z,9.20
2022-11-09T01:50:30.526Z,9.10
2022-11-09T01:52:58.820Z,9.20
2022-11-09T01:55:27.076Z,9.20
2022-11-09T01:57:56.796Z,9.20
2022-11-09T02:00:24.883Z,9.20
2022-11-09T02:02:56.084Z,9.30
2022-11-09T02:05:25.301Z,9.30
2022-11-09T02:07:53.772Z,9.30
2022-11-09T02:10:24.341Z,9.20
2022-11-09T02:12:54.414Z,9.30
2022-11-09T02:15:23.061Z,9.30
2022-11-09T02:17:52.752Z,9.30
2022-11-09T02:20:23.022Z,9.30
2022-11-09T02:22:51.332Z,9.30
2022-11-09T02:25:19.474Z,9.30
2022-11-09T02:27:47.811Z,9.30
2022-11-09T02:30:16.272Z,9.30
2022-11-09T02:32:44.341Z,9.40
2022-11-09T02:35:12.401Z,9.30
2022-11-09T02:37:43.488Z,9.40
2022-11-09T02:40:15.246Z,9.30
2022-11-09T02:42:43.353Z,9.30
2022-11-09T02:45:11.924Z,9.30
2022-11-09T02:47:40.052Z,9.30
2022-11-09T02:50:08.344Z,9.40
2022-11-09T02:52:36.648Z,9.40
2022-11-09T02:55:06.656Z,9.30
2022-11-09T02:57:34.722Z,9.40
2022-11-09T03:00:02.901Z,9.40
2022-11-09T03:02:31.443Z,9.30
2022-11-09T03:04:59.522Z,9.40
2022-11-09T03:07:27.966Z,9.30
2022-11-09T03:09:59.033Z,9.30
2022-11-09T03:12:31.188Z,9.30
2022-11-09T03:14:59.792Z,9.30
2022-11-09T03:17:28.105Z,9.30
2022-11-09T03:19:56.209Z,9.30
2022-11-09T03:22:24.380Z,9.40
2022-11-09T03:24:54.791Z,9.40
2022-11-09T03:27:23.046Z,9.40
2022-11-09T03:29:52.674Z,9.40
2022-11-09T03:32:20.741Z,9.30
2022-11-09T03:34:49.301Z,9.40
2022-11-09T03:37:20.041Z,9.30
2022-11-09T03:39:48.193Z,9.30
2022-11-09T03:42:16.317Z,9.30
2022-11-09T03:44:44.384Z,9.30
2022-11-09T03:47:13.909Z,9.30
2022-11-09T03:49:42.250Z,9.30
2022-11-09T03:52:10.320Z,9.30
2022-11-09T03:54:38.484Z,9.30
2022-11-09T03:57:06.564Z,9.30
2022-11-09T03:59:34.702Z,9.30
2022-11-09T04:02:02.939Z,9.30
2022-11-09T04:04:32.533Z,9.30
2022-11-09T04:07:03.687Z,9.30
2022-11-09T04:09:31.946Z,9.30
2022-11-09T04:12:00.049Z,9.40
2022-11-09T04:14:28.299Z,9.40
2022-11-09T04:16:56.387Z,9.40
2022-11-09T04:19:24.569Z,9.30
2022-11-09T04:21:54.130Z,9.30
2022-11-09T04:24:22.205Z,9.40
2022-11-09T04:26:50.332Z,9.40
2022-11-09T04:29:18.429Z,9.30
2022-11-09T04:31:46.566Z,9.40
2022-11-09T04:34:14.620Z,9.40
2022-11-09T04:36:42.775Z,9.30
2022-11-09T04:39:12.388Z,9.40
2022-11-09T04:41:40.448Z,9.40
2022-11-09T04:44:08.664Z,9.30
2022-11-09T04:46:36.804Z,9.40
2022-11-09T04:49:05.114Z,9.40
2022-11-09T04:51:33.254Z,9.40
2022-11-09T04:54:01.322Z,9.40
2022-11-09T04:56:31.022Z,9.40
2022-11-09T04:59:01.402Z,9.40
2022-11-09T05:01:29.501Z,9.30
2022-11-09T05:03:57.811Z,9.40
2022-11-09T05:06:34.999Z,9.40
2022-11-09T05:09:04.147Z,9.40
2022-11-09T05:11:34.203Z,9.30
2022-11-09T05:14:02.481Z,9.40
2022-11-09T05:16:34.218Z,9.40
2022-11-09T05:19:02.320Z,9.40
2022-11-09T05:21:30.584Z,9.40
2022-11-09T05:24:00.358Z,9.40
2022-11-09T05:26:32.033Z,9.40
2022-11-09T05:29:02.184Z,9.40
2022-11-09T05:31:30.412Z,9.40
2022-11-09T05:33:59.488Z,9.40
2022-11-09T05:36:28.056Z,9.40
2022-11-09T05:38:56.421Z,9.40
2022-11-09T05:41:25.027Z,9.40
2022-11-09T05:43:53.247Z,9.40
2022-11-09T05:46:22.807Z,9.40
2022-11-09T05:48:51.017Z,9.40
2022-11-09T05:51:19.069Z,9.40
2022-11-09T05:53:47.431Z,9.40
2022-11-09T05:56:16.177Z,9.40
2022-11-09T05:58:44.786Z,9.40
2022-11-09T06:01:13.797Z,9.40
2022-11-09T06:03:44.508Z,9.40
2022-11-09T06:06:14.539Z,9.40
2022-11-09T06:08:42.625Z,9.40
2022-11-09T06:11:11.468Z,9.40
2022-11-09T06:13:39.825Z,9.40
2022-11-09T06:16:08.245Z,9.50
2022-11-09T06:18:37.061Z,9.40
2022-11-09T06:21:07.066Z,9.40
2022-11-09T06:23:35.367Z,9.50
2022-11-09T06:26:06.524Z,9.50
2022-11-09T06:28:35.009Z,9.50
2022-11-09T06:31:03.926Z,9.50
2022-11-09T06:33:32.604Z,9.50
2022-11-09T06:36:01.075Z,9.50
2022-11-09T06:38:31.040Z,9.50
2022-11-09T06:40:59.926Z,9.50
2022-11-09T06:43:28.249Z,9.50
2022-11-09T06:45:56.705Z,9.60
2022-11-09T06:48:26.952Z,9.60
2022-11-09T06:50:55.201Z,9.60
2022-11-09T06:53:24.095Z,9.60
2022-11-09T06:55:53.873Z,9.60
2022-11-09T06:58:22.315Z,9.60
2022-11-09T07:00:50.457Z,9.60
2022-11-09T07:03:20.447Z,9.60
2022-11-09T07:05:49.249Z,9.70
2022-11-09T07:08:18.248Z,9.70
2022-11-09T07:10:46.660Z,9.70
2022-11-09T07:13:16.296Z,9.70
2022-11-09T07:15:44.634Z,9.70
2022-11-09T07:18:13.661Z,9.80
2022-11-09T07:20:41.742Z,9.70
2022-11-09T07:23:09.846Z,9.70
2022-11-09T07:25:37.938Z,9.80
2022-11-09T07:28:07.721Z,9.70
2022-11-09T07:30:37.809Z,9.70
2022-11-09T07:33:10.308Z,9.80
2022-11-09T07:35:38.736Z,9.80
2022-11-09T07:38:09.547Z,9.80
2022-11-09T07:40:38.208Z,9.80
2022-11-09T07:43:07.394Z,9.80
2022-11-09T07:45:36.313Z,9.80
2022-11-09T07:48:07.135Z,9.90
2022-11-09T07:50:35.831Z,9.90
2022-11-09T07:53:05.713Z,9.90
2022-11-09T07:55:34.536Z,9.90
2022-11-09T07:58:03.744Z,9.90
2022-11-09T08:00:32.846Z,10.00
2022-11-09T08:03:01.022Z,10.00
2022-11-09T08:05:31.067Z,10.00
2022-11-09T08:08:00.089Z,10.00
2022-11-09T08:10:28.959Z,10.00
2022-11-09T08:12:58.172Z,10.00
2022-11-09T08:15:26.422Z,10.00
2022-11-09T08:17:54.867Z,10.00
2022-11-09T08:20:23.054Z,10.00
2022-11-09T08:22:52.588Z,10.00
2022-11-09T08:25:20.684Z,10.00
2022-11-09T08:27:49.005Z,10.10
2022-11-09T08:30:18.347Z,10.10
2022-11-09T08:32:46.496Z,10.10
2022-11-09T08:35:17.894Z,10.20
2022-11-09T08:37:47.046Z,10.20
2022-11-09T08:40:17.372Z,10.20
2022-11-09T08:42:45.628Z,10.20
2022-11-09T08:45:13.822Z,10.30
2022-11-09T08:47:42.149Z,10.30
2022-11-09T08:50:11.300Z,10.30
2022-11-09T08:52:39.647Z,10.30
2022-11-09T08:55:08.605Z,10.30
2022-11-09T08:57:38.402Z,10.30
2022-11-09T09:00:07.314Z,10.40
2022-11-09T09:02:35.430Z,10.40
2022-11-09T09:05:03.670Z,10.40
2022-11-09T09:07:31.758Z,10.30
2022-11-09T09:09:59.971Z,10.30
2022-11-09T09:12:28.170Z,10.30
2022-11-09T09:14:57.787Z,10.30
2022-11-09T09:17:26.056Z,10.30
2022-11-09T09:19:54.157Z,10.30
2022-11-09T09:22:22.386Z,10.40
2022-11-09T09:24:50.500Z,10.30
2022-11-09T09:27:18.653Z,10.30
2022-11-09T09:29:46.912Z,10.30
2022-11-09T09:32:16.408Z,10.30
2022-11-09T09:34:44.633Z,10.30
2022-11-09T09:37:12.666Z,10.40
2022-11-09T09:39:43.741Z,10.40
2022-11-09T09:42:15.824Z,10.40
2022-11-09T09:44:45.711Z,10.50
2022-11-09T09:47:14.788Z,10.50
2022-11-09T09:49:46.350Z,10.50
2022-11-09T09:52:18.037Z,10.50
2022-11-09T09:54:52.029Z,10.50
2022-11-09T09:57:21.336Z,10.60
2022-11-09T09:59:50.728Z,10.60
2022-11-09T10:02:22.445Z,10.60
2022-11-09T10:04:52.720Z,10.60
2022-11-09T10:07:25.982Z,10.60
2022-11-09T10:09:59.422Z,10.60
2022-11-09T10:12:33.730Z,10.50
2022-11-09T10:15:07.905Z,10.50
2022-11-09T10:17:41.660Z,10.50
2022-11-09T10:20:19.871Z,10.60
2022-11-09T10:22:52.796Z,10.60
2022-11-09T10:26:02.299Z,10.70
2022-11-09T10:28:13.396Z,10.70
2022-11-09T10:30:41.627Z,10.70
2022-11-09T10:33:15.563Z,10.80
2022-11-09T10:35:46.884Z,10.90
2022-11-09T10:38:18.233Z,10.90
2022-11-09T10:40:53.441Z,11.00
2022-11-09T10:43:21.568Z,11.10
2022-11-09T10:45:59.126Z,11.20
2022-11-09T10:48:34.333Z,11.30
2022-11-09T10:51:04.180Z,11.40
2022-11-09T10:53:33.909Z,11.50
2022-11-09T10:56:08.199Z,11.50
2022-11-09T10:58:37.724Z,11.60
2022-11-09T11:01:06.716Z,11.50
2022-11-09T11:03:36.567Z,11.50
2022-11-09T11:06:06.612Z,11.60
2022-11-09T11:08:40.190Z,11.60
2022-11-09T11:11:33.650Z,11.60
2022-11-09T11:14:15.875Z,11.60
2022-11-09T11:16:47.165Z,11.60
2022-11-09T11:19:32.321Z,11.50
2022-11-09T11:22:23.189Z,11.50
2022-11-09T11:24:58.318Z,11.50
2022-11-09T11:27:29.971Z,11.40
2022-11-09T11:30:03.137Z,11.40
2022-11-09T11:32:31.286Z,11.40
2022-11-09T11:35:01.157Z,11.40
2022-11-09T11:37:41.102Z,11.30
2022-11-09T11:40:11.782Z,11.30
2022-11-09T11:43:00.557Z,11.40
2022-11-09T11:45:42.195Z,11.40
2022-11-09T11:48:26.386Z,11.40
2022-11-09T11:50:57.341Z,11.40
2022-11-09T11:53:34.013Z,11.40
2022-11-09T11:56:19.886Z,11.40
2022-11-09T11:58:53.914Z,11.50
2022-11-09T12:01:30.080Z,11.40
2022-11-09T12:04:03.056Z,11.40
2022-11-09T12:06:39.755Z,11.30
2022-11-09T12:09:15.493Z,11.30
2022-11-09T12:11:48.991Z,11.20
2022-11-09T12:14:20.524Z,11.20
2022-11-09T12:16:50.672Z,11.20
2022-11-09T12:19:34.315Z,11.30
2022-11-09T12:22:07.646Z,11.30
2022-11-09T12:24:40.582Z,11.40
2022-11-09T12:27:31.635Z,11.40
2022-11-09T12:30:04.140Z,11.40
2022-11-09T12:32:36.216Z,11.50
2022-11-09T12:35:13.149Z,11.60
2022-11-09T12:37:46.363Z,11.60
2022-11-09T12:40:20.490Z,11.60
2022-11-09T12:42:53.305Z,11.50
2022-11-09T12:45:24.212Z,11.50
2022-11-09T12:47:54.844Z,11.40
2022-11-09T12:50:25.544Z,11.30
2022-11-09T12:52:54.043Z,11.30
2022-11-09T12:55:29.161Z,11.30
2022-11-09T12:58:01.191Z,11.30
2022-11-09T13:00:52.149Z,11.20
2022-11-09T13:03:22.320Z,11.20
2022-11-09T13:06:09.725Z,11.20
2022-11-09T13:08:38.549Z,11.20
2022-11-09T13:11:12.496Z,11.30
2022-11-09T13:13:40.780Z,11.20
2022-11-09T13:16:11.985Z,11.20
2022-11-09T13:18:53.501Z,11.20
2022-11-09T13:21:48.397Z,11.10
2022-11-09T13:24:31.535Z,11.10
2022-11-09T13:27:04.481Z,11.10
2022-11-09T13:29:52.287Z,11.10
2022-11-09T13:32:25.794Z,11.10
2022-11-09T13:34:54.554Z,11.00
2022-11-09T13:37:39.397Z,10.90
2022-11-09T13:40:28.379Z,10.90
2022-11-09T13:42:59.033Z,10.80
2022-11-09T13:45:28.322Z,10.80
2022-11-09T13:47:56.365Z,10.70
2022-11-09T13:50:25.695Z,10.70
2022-11-09T13:52:55.916Z,10.70
2022-11-09T13:55:32.817Z,10.70
2022-11-09T13:58:11.269Z,10.70
2022-11-09T14:00:39.492Z,10.60
2022-11-09T14:03:17.770Z,10.60
2022-11-09T14:05:46.715Z,10.60
2022-11-09T14:08:20.397Z,10.60
2022-11-09T14:11:03.441Z,10.60
2022-11-09T14:13:46.383Z,10.60
2022-11-09T14:16:22.532Z,10.50
2022-11-09T14:18:59.358Z,10.50
2022-11-09T14:21:33.293Z,10.40
2022-11-09T14:24:03.336Z,10.30
2022-11-09T14:26:31.474Z,10.30
2022-11-09T14:28:59.580Z,10.20
2022-11-09T14:31:29.941Z,10.20
2022-11-09T14:34:02.744Z,10.20
2022-11-09T14:36:33.142Z,10.10
2022-11-09T14:39:02.415Z,10.10
2022-11-09T14:41:31.145Z,10.10
2022-11-09T14:44:00.582Z,10.10
2022-11-09T14:46:32.171Z,10.00
2022-11-09T14:49:03.590Z,10.00
2022-11-09T14:51:32.465Z,10.10
2022-11-09T14:54:01.850Z,10.10
2022-11-09T14:56:32.145Z,10.10
2022-11-09T14:59:02.255Z,10.10
2022-11-09T15:01:32.625Z,10.10
2022-11-09T15:04:08.440Z,10.10
2022-11-09T15:06:42.878Z,10.10
2022-11-09T15:09:16.509Z,10.10
2022-11-09T15:11:45.261Z,10.00
2022-11-09T15:14:14.157Z,10.00
2022-11-09T15:16:46.904Z,10.00
2022-11-09T15:19:26.433Z,10.00
2022-11-09T15:21:54.652Z,10.00
2022-11-09T15:24:23.596Z,10.00
2022-11-09T15:26:52.968Z,10.00
2022-11-09T15:29:28.238Z,10.00
2022-11-09T15:32:02.837Z,10.00
2022-11-09T15:34:34.872Z,10.00
2022-11-09T15:37:02.964Z,10.00
2022-11-09T15:39:31.027Z,9.90
2022-11-09T15:41:59.133Z,9.90
2022-11-09T15:44:32.925Z,9.90
2022-11-09T15:47:02.514Z,9.90
2022-11-09T15:49:30.839Z,9.90
2022-11-09T15:51:58.925Z,9.90
2022-11-09T15:54:27.199Z,9.80
2022-11-09T15:56:55.256Z,9.80
2022-11-09T15:59:24.589Z,9.80
2022-11-09T16:01:52.675Z,9.80
2022-11-09T16:04:22.242Z,9.70
2022-11-09T16:06:50.425Z,9.70
2022-11-09T16:09:20.651Z,9.70
2022-11-09T16:11:50.178Z,9.60
2022-11-09T16:14:20.226Z,9.70
2022-11-09T16:16:48.483Z,9.60
2022-11-09T16:19:16.785Z,9.60
2022-11-09T16:21:46.316Z,9.50
2022-11-09T16:24:14.419Z,9.50
2022-11-09T16:26:42.498Z,9.50
2022-11-09T16:29:10.653Z,9.50
2022-11-09T16:31:51.486Z,9.50
2022-11-09T16:34:20.562Z,9.40
2022-11-09T16:36:55.619Z,9.50
2022-11-09T16:39:26.810Z,9.40
2022-11-09T16:41:55.237Z,9.40
2022-11-09T16:44:24.897Z,9.40
2022-11-09T16:46:53.467Z,9.40
2022-11-09T16:49:21.561Z,9.40
2022-11-09T16:51:51.121Z,9.40
2022-11-09T16:54:19.214Z,9.40
2022-11-09T16:56:48.270Z,9.40
2022-11-09T16:59:16.546Z,9.40
2022-11-09T17:01:44.757Z,9.30
2022-11-09T17:04:13.018Z,9.30
2022-11-09T17:06:41.185Z,9.30
2022-11-09T17:09:10.812Z,9.30
2022-11-09T17:11:38.898Z,9.30
2022-11-09T17:14:07.062Z,9.30
2022-11-09T17:16:35.394Z,9.20
2022-11-09T17:19:03.865Z,9.20
2022-11-09T17:21:31.969Z,9.20
2022-11-09T17:24:00.381Z,9.20
2022-11-09T17:26:32.495Z,9.20
2022-11-09T17:29:00.627Z,9.20
2022-11-09T17:31:28.930Z,9.20
2022-11-09T17:34:01.195Z,9.20
2022-11-09T17:36:57.283Z,9.20
2022-11-09T17:39:20.985Z,9.20
2022-11-09T17:41:50.563Z,9.10
2022-11-09T17:44:18.709Z,9.10
2022-11-09T17:46:46.981Z,9.10
2022-11-09T17:49:15.272Z,9.10
2022-11-09T17:51:43.456Z,9.10
2022-11-09T17:54:11.479Z,9.10
2022-11-09T17:56:42.139Z,9.10
2022-11-09T17:59:12.296Z,9.10
2022-11-09T18:01:41.806Z,9.10
2022-11-09T18:04:10.889Z,9.10
2022-11-09T18:06:39.625Z,9.20
2022-11-09T18:09:39.576Z,9.20
2022-11-09T18:11:56.481Z,9.20
2022-11-09T18:14:26.069Z,9.20
2022-11-09T18:16:54.146Z,9.10
2022-11-09T18:19:22.417Z,9.10
2022-11-09T18:21:50.504Z,9.10
2022-11-09T18:24:18.713Z,9.10
2022-11-09T18:26:46.816Z,9.00
2022-11-09T18:29:14.896Z,9.00
2022-11-09T18:31:46.466Z,9.00
2022-11-09T18:34:14.661Z,9.00
2022-11-09T18:36:42.823Z,9.00
2022-11-09T18:39:10.974Z,8.90
2022-11-09T18:41:39.231Z,9.00
2022-11-09T18:44:07.325Z,8.90
2022-11-09T18:46:35.575Z,9.00
2022-11-09T18:49:07.928Z,8.90
2022-11-09T18:51:39.835Z,8.90
2022-11-09T18:54:09.833Z,8.90
2022-11-09T18:56:37.874Z,8.90
2022-11-09T18:59:06.224Z,8.90
2022-11-09T19:01:34.287Z,8.90
2022-11-09T19:04:02.589Z,8.90
2022-11-09T19:06:32.446Z,8.90
2022-11-09T19:09:17.812Z,8.90
2022-11-09T19:11:46.033Z,8.80
2022-11-09T19:14:14.064Z,8.90
2022-11-09T19:16:42.138Z,8.80
2022-11-09T19:19:12.597Z,8.80
2022-11-09T19:21:43.154Z,8.80
2022-11-09T19:24:13.246Z,8.80
2022-11-09T19:26:44.305Z,8.80
2022-11-09T19:29:13.284Z,8.80
2022-11-09T19:31:43.407Z,8.80
2022-11-09T19:34:11.985Z,8.80
2022-11-09T19:36:43.310Z,8.70
2022-11-09T19:39:13.301Z,8.70
2022-11-09T19:41:41.703Z,8.70
2022-11-09T19:44:12.938Z,8.70
2022-11-09T19:46:41.150Z,8.70
2022-11-09T19:49:10.014Z,8.70
2022-11-09T19:51:38.123Z,8.70
2022-11-09T19:54:06.419Z,8.70
2022-11-09T19:56:37.236Z,8.60
2022-11-09T19:59:05.689Z,8.60
2022-11-09T20:01:33.972Z,8.60
2022-11-09T20:04:07.658Z,8.60
2022-11-09T20:06:38.828Z,8.70
2022-11-09T20:09:07.324Z,8.70
2022-11-09T20:11:54.237Z,8.60
2022-11-09T20:14:22.644Z,8.60
2022-11-09T20:16:51.185Z,8.60
2022-11-09T20:19:19.357Z,8.60
2022-11-09T20:21:47.417Z,8.60
2022-11-09T20:24:15.570Z,8.60
2022-11-09T20:26:45.242Z,8.60
2022-11-09T20:29:13.307Z,8.60
2022-11-09T20:31:41.620Z,8.60
2022-11-09T20:34:09.820Z,8.60
2022-11-09T20:36:38.081Z,8.50
2022-11-09T20:39:08.986Z,8.50
2022-11-09T20:41:37.022Z,8.50
2022-11-09T20:44:06.742Z,8.50
2022-11-09T20:46:36.681Z,8.50
2022-11-09T20:49:05.481Z,8.50
2022-11-09T20:51:33.915Z,8.40
2022-11-09T20:54:06.851Z,8.40
2022-11-09T20:56:35.884Z,8.40
2022-11-09T20:59:04.199Z,8.40
2022-11-09T21:01:34.246Z,8.50
2022-11-09T21:04:02.428Z,8.40
2022-11-09T21:06:31.299Z,8.40
2022-11-09T21:09:01.137Z,8.40
2022-11-09T21:11:35.838Z,8.40
2022-11-09T21:14:04.408Z,8.40
2022-11-09T21:16:34.204Z,8.40
2022-11-09T21:19:02.303Z,8.40
2022-11-09T21:21:36.043Z,8.40
2022-11-09T21:24:21.266Z,8.30
2022-11-09T21:27:14.844Z,8.40
2022-11-09T21:29:52.063Z,8.40
2022-11-09T21:32:22.595Z,8.30
2022-11-09T21:34:51.867Z,8.30
2022-11-09T21:37:19.933Z,8.30
2022-11-09T21:39:48.223Z,8.20
2022-11-09T21:42:16.312Z,8.20
2022-11-09T21:44:44.332Z,8.20
2022-11-09T21:47:12.658Z,8.20
2022-11-09T21:49:42.202Z,8.30
2022-11-09T21:52:10.371Z,8.20
2022-11-09T21:54:41.230Z,8.20
2022-11-09T21:57:09.451Z,8.10
2022-11-09T21:59:37.609Z,8.10
2022-11-09T22:02:05.774Z,8.20
2022-11-09T22:04:36.229Z,8.20
2022-11-09T22:07:05.944Z,8.30
2022-11-09T22:09:50.925Z,8.30
2022-11-09T22:12:40.215Z,8.30
2022-11-09T22:15:32.507Z,8.40
2022-11-09T22:18:00.549Z,8.40
2022-11-09T22:20:42.457Z,8.40
2022-11-09T22:23:12.242Z,8.50
2022-11-09T22:25:45.253Z,8.60
2022-11-09T22:28:16.020Z,8.50
2022-11-09T22:30:44.348Z,8.50
2022-11-09T22:33:12.415Z,8.50
2022-11-09T22:35:40.677Z,8.50
2022-11-09T22:38:09.023Z,8.50
2022-11-09T22:40:38.508Z,8.50
2022-11-09T22:43:06.596Z,8.50
2022-11-09T22:45:35.291Z,8.50
2022-11-09T22:48:03.477Z,8.50
2022-11-09T22:50:31.784Z,8.60
2022-11-09T22:53:03.782Z,8.60
2022-11-09T22:55:33.100Z,8.60
2022-11-09T22:58:02.795Z,8.60
2022-11-09T23:00:31.028Z,8.60
2022-11-09T23:02:59.189Z,8.70
2022-11-09T23:05:27.532Z,8.60
2022-11-09T23:07:56.042Z,8.60
2022-11-09T23:10:24.329Z,8.70
2022-11-09T23:12:52.410Z,8.70
2022-11-09T23:15:21.978Z,8.70
2022-11-09T23:18:07.451Z,8.60
2022-11-09T23:20:35.978Z,8.60
2022-11-09T23:23:04.200Z,8.70
2022-11-09T23:25:49.850Z,8.60
2022-11-09T23:28:18.214Z,8.60
2022-11-09T23:30:47.942Z,8.70
2022-11-09T23:33:16.350Z,8.70
2022-11-09T23:35:44.409Z,8.70
2022-11-09T23:38:12.765Z,8.60
2022-11-09T23:40:40.854Z,8.60
2022-11-09T23:43:09.827Z,8.70
2022-11-09T23:45:38.545Z,8.60
2022-11-09T23:48:08.482Z,8.70
2022-11-09T23:50:36.550Z,8.70
2022-11-09T23:53:04.665Z,8.70
2022-11-09T23:55:32.709Z,8.70
2022-11-09T23:58:02.266Z,8.70
